createdAt,value
2022-12-23T00:00:02.509Z,93179.12
2022-12-23T00:01:04.852Z,93178.59
2022-12-23T00:01:38.373Z,93180.05
2022-12-23T00:02:11.996Z,93182.13
2022-12-23T00:02:46.267Z,93182.57
2022-12-23T00:03:19.950Z,93181.79
2022-12-23T00:03:56.800Z,93180.90
2022-12-23T00:04:30.451Z,93179.14
2022-12-23T00:05:05.056Z,93180.34
2022-12-23T00:05:39.507Z,93183.59
2022-12-23T00:06:15.439Z,93184.63
2022-12-23T00:06:49.017Z,93187.05
2022-12-23T00:07:22.517Z,93182.70
2022-12-23T00:07:56.030Z,93180.46
2022-12-23T00:08:29.526Z,93180.88
2022-12-23T00:09:02.968Z,93182.92
2022-12-23T00:09:36.425Z,93179.02
2022-12-23T00:10:10.243Z,93175.42
2022-12-23T00:10:43.749Z,93181.16
2022-12-23T00:11:20.344Z,93179.09
2022-12-23T00:12:12.370Z,93182.83
2022-12-23T00:13:04.044Z,93185.77
2022-12-23T00:13:56.069Z,93180.95
2022-12-23T00:14:48.028Z,93186.61
2022-12-23T00:15:21.435Z,93183.73
2022-12-23T00:16:08.694Z,93178.86
2022-12-23T00:16:42.298Z,93174.61
2022-12-23T00:17:22.628Z,93182.16
2022-12-23T00:17:56.797Z,93179.73
2022-12-23T00:18:32.928Z,93178.29
2022-12-23T00:19:06.445Z,93175.08
2022-12-23T00:19:39.979Z,93170.83
2022-12-23T00:20:16.432Z,93172.78
2022-12-23T00:20:50.127Z,93167.48
2022-12-23T00:21:23.695Z,93171.66
2022-12-23T00:21:57.315Z,93168.57
2022-12-23T00:22:49.331Z,93162.85
2022-12-23T00:23:22.707Z,93161.60
2022-12-23T00:23:56.051Z,93163.64
2022-12-23T00:24:29.461Z,93162.27
2022-12-23T00:25:02.872Z,93165.63
2022-12-23T00:25:42.473Z,93162.23
2022-12-23T00:26:24.572Z,93161.61
2022-12-23T00:26:58.118Z,93160.36
2022-12-23T00:27:37.194Z,93159.33
2022-12-23T00:28:19.882Z,93158.08
2022-12-23T00:28:56.726Z,93160.24
2022-12-23T00:29:30.292Z,93162.59
2022-12-23T00:30:05.555Z,93164.88
2022-12-23T00:30:47.021Z,93166.25
2022-12-23T00:31:21.424Z,93159.16
2022-12-23T00:31:54.940Z,93159.47
2022-12-23T00:32:28.369Z,93162.50
2022-12-23T00:33:01.825Z,93158.55
2022-12-23T00:33:44.313Z,93158.30
2022-12-23T00:34:17.719Z,93155.98
2022-12-23T00:34:51.233Z,93154.29
2022-12-23T00:35:24.578Z,93154.45
2022-12-23T00:35:58.644Z,93155.56
2022-12-23T00:36:33.840Z,93151.02
2022-12-23T00:37:07.423Z,93151.88
2022-12-23T00:37:41.064Z,93152.33
2022-12-23T00:38:38.985Z,93149.20
2022-12-23T00:39:31.824Z,93146.73
2022-12-23T00:40:24.668Z,93146.92
2022-12-23T00:41:16.817Z,93147.14
2022-12-23T00:42:08.840Z,93142.09
2022-12-23T00:42:54.455Z,93142.77
2022-12-23T00:43:27.993Z,93144.21
2022-12-23T00:44:02.457Z,93144.83
2022-12-23T00:44:35.762Z,93139.76
2022-12-23T00:45:16.229Z,93145.93
2022-12-23T00:45:49.867Z,93145.29
2022-12-23T00:46:23.475Z,93143.80
2022-12-23T00:46:57.067Z,93146.91
2022-12-23T00:47:49.250Z,93147.04
2022-12-23T00:48:41.181Z,93149.66
2022-12-23T00:49:34.272Z,93146.97
2022-12-23T00:50:08.440Z,93144.55
2022-12-23T00:50:42.038Z,93147.06
2022-12-23T00:51:15.419Z,93142.42
2022-12-23T00:51:48.905Z,93145.38
2022-12-23T00:52:22.274Z,93140.55
2022-12-23T00:52:56.066Z,93142.59
2022-12-23T00:53:30.429Z,93142.19
2022-12-23T00:54:04.265Z,93144.77
2022-12-23T00:54:37.919Z,93147.65
2022-12-23T00:55:11.391Z,93144.20
2022-12-23T00:55:47.968Z,93141.70
2022-12-23T00:56:21.465Z,93140.60
2022-12-23T00:56:55.289Z,93144.25
2022-12-23T00:57:28.869Z,93139.39
2022-12-23T00:58:02.375Z,93136.54
2022-12-23T00:58:35.967Z,93139.93
2022-12-23T00:59:09.715Z,93142.45
2022-12-23T00:59:43.190Z,93141.30
2022-12-23T01:00:17.042Z,93140.06
2022-12-23T01:01:09.130Z,93142.24
2022-12-23T01:02:01.705Z,93142.71
2022-12-23T01:02:53.817Z,93140.75
2022-12-23T01:03:46.525Z,93146.78
2022-12-23T01:04:39.451Z,93144.23
2022-12-23T01:05:31.847Z,93144.36
2022-12-23T01:06:05.461Z,93146.19
2022-12-23T01:06:38.960Z,93144.40
2022-12-23T01:07:12.606Z,93143.48
2022-12-23T01:07:46.240Z,93140.62
2022-12-23T01:08:19.964Z,93141.23
2022-12-23T01:08:53.447Z,93148.38
2022-12-23T01:09:27.405Z,93147.58
2022-12-23T01:10:00.850Z,93149.17
2022-12-23T01:10:42.561Z,93146.31
2022-12-23T01:11:19.791Z,93148.39
2022-12-23T01:11:54.981Z,93145.69
2022-12-23T01:12:28.544Z,93145.95
2022-12-23T01:13:02.068Z,93144.41
2022-12-23T01:13:36.702Z,93145.40
2022-12-23T01:14:10.227Z,93145.98
2022-12-23T01:14:43.753Z,93147.95
2022-12-23T01:15:17.543Z,93148.14
2022-12-23T01:15:51.085Z,93147.73
2022-12-23T01:16:24.786Z,93148.10
2022-12-23T01:16:58.528Z,93143.21
2022-12-23T01:17:32.024Z,93142.73
2022-12-23T01:18:08.377Z,93146.88
2022-12-23T01:18:42.221Z,93148.14
2022-12-23T01:19:16.028Z,93151.42
2022-12-23T01:19:49.447Z,93147.66
2022-12-23T01:20:23.324Z,93144.44
2022-12-23T01:21:02.582Z,93145.33
2022-12-23T01:21:36.063Z,93138.24
2022-12-23T01:22:09.724Z,93137.30
2022-12-23T01:22:43.161Z,93137.25
2022-12-23T01:23:16.627Z,93134.41
2022-12-23T01:23:50.066Z,93134.55
2022-12-23T01:24:24.192Z,93135.57
2022-12-23T01:24:57.581Z,93138.68
2022-12-23T01:25:32.387Z,93135.52
2022-12-23T01:26:07.643Z,93135.48
2022-12-23T01:26:41.274Z,93137.45
2022-12-23T01:27:14.761Z,93137.77
2022-12-23T01:27:48.223Z,93140.58
2022-12-23T01:28:21.706Z,93138.76
2022-12-23T01:28:56.939Z,93137.89
2022-12-23T01:29:30.355Z,93138.97
2022-12-23T01:30:04.265Z,93138.33
2022-12-23T01:30:38.445Z,93132.56
2022-12-23T01:31:12.107Z,93134.18
2022-12-23T01:31:45.585Z,93132.66
2022-12-23T01:32:19.286Z,93135.73
2022-12-23T01:32:52.857Z,93134.19
2022-12-23T01:33:26.285Z,93133.13
2022-12-23T01:33:59.877Z,93132.85
2022-12-23T01:34:36.980Z,93126.29
2022-12-23T01:35:11.175Z,93133.73
2022-12-23T01:35:44.735Z,93130.17
2022-12-23T01:36:18.511Z,93128.97
2022-12-23T01:36:51.987Z,93129.96
2022-12-23T01:37:25.426Z,93130.06
2022-12-23T01:37:58.890Z,93126.35
2022-12-23T01:38:32.752Z,93124.52
2022-12-23T01:39:06.136Z,93126.27
2022-12-23T01:39:39.630Z,93118.84
2022-12-23T01:40:13.198Z,93126.20
2022-12-23T01:40:46.646Z,93121.89
2022-12-23T01:41:51.281Z,93120.05
2022-12-23T01:42:43.784Z,93123.71
2022-12-23T01:43:21.314Z,93123.77
2022-12-23T01:43:54.893Z,93122.40
2022-12-23T01:44:50.873Z,93123.77
2022-12-23T01:45:29.274Z,93120.32
2022-12-23T01:46:03.056Z,93117.11
2022-12-23T01:46:36.450Z,93116.94
2022-12-23T01:47:14.651Z,93114.88
2022-12-23T01:48:00.936Z,93116.42
2022-12-23T01:48:34.418Z,93115.37
2022-12-23T01:49:08.082Z,93117.92
2022-12-23T01:49:43.072Z,93113.31
2022-12-23T01:50:31.748Z,93114.37
2022-12-23T01:51:25.015Z,93113.80
2022-12-23T01:51:58.525Z,93114.23
2022-12-23T01:52:39.169Z,93120.23
2022-12-23T01:53:18.286Z,93115.96
2022-12-23T01:53:58.221Z,93117.91
2022-12-23T01:54:32.190Z,93113.17
2022-12-23T01:55:06.297Z,93118.81
2022-12-23T01:56:08.281Z,93118.33
2022-12-23T01:56:42.203Z,93118.61
2022-12-23T01:57:15.934Z,93118.67
2022-12-23T01:57:49.961Z,93116.75
2022-12-23T01:58:27.732Z,93119.44
2022-12-23T01:59:06.973Z,93118.77
2022-12-23T02:00:00.093Z,93120.69
2022-12-23T02:00:52.224Z,93122.06
2022-12-23T02:01:44.870Z,93116.11
2022-12-23T02:02:37.182Z,93118.30
2022-12-23T02:03:29.361Z,93117.77
2022-12-23T02:04:10.004Z,93119.41
2022-12-23T02:04:43.898Z,93117.05
2022-12-23T02:05:17.804Z,93122.22
2022-12-23T02:05:53.426Z,93118.09
2022-12-23T02:06:49.761Z,93111.77
2022-12-23T02:07:42.178Z,93119.28
2022-12-23T02:08:35.920Z,93114.28
2022-12-23T02:09:27.522Z,93114.98
2022-12-23T02:10:00.966Z,93111.07
2022-12-23T02:10:55.233Z,93109.02
2022-12-23T02:11:43.286Z,93112.23
2022-12-23T02:12:44.389Z,93112.63
2022-12-23T02:13:35.199Z,93112.48
2022-12-23T02:14:55.469Z,93115.38
2022-12-23T02:15:57.451Z,93108.10
2022-12-23T02:16:38.927Z,93109.02
2022-12-23T02:17:41.108Z,93108.71
2022-12-23T02:18:38.979Z,93109.14
2022-12-23T02:19:24.487Z,93106.56
2022-12-23T02:20:00.398Z,93104.82
2022-12-23T02:20:39.679Z,93106.80
2022-12-23T02:21:33.651Z,93105.55
2022-12-23T02:22:39.397Z,93106.61
2022-12-23T02:23:50.865Z,93109.30
2022-12-23T02:25:15.629Z,93107.84
2022-12-23T02:25:49.027Z,93109.16
2022-12-23T02:26:49.933Z,93111.73
2022-12-23T02:27:42.561Z,93106.11
2022-12-23T02:28:21.671Z,93096.98
2022-12-23T02:29:31.940Z,93103.39
2022-12-23T02:30:23.073Z,93106.65
2022-12-23T02:31:10.764Z,93106.84
2022-12-23T02:32:11.325Z,93107.15
2022-12-23T02:33:07.970Z,93110.08
2022-12-23T02:33:59.738Z,93105.75
2022-12-23T02:34:40.483Z,93101.14
2022-12-23T02:35:31.564Z,93108.25
2022-12-23T02:36:23.675Z,93101.63
2022-12-23T02:37:09.078Z,93101.11
2022-12-23T02:38:04.601Z,93101.42
2022-12-23T02:39:05.975Z,93100.29
2022-12-23T02:39:50.862Z,93094.86
2022-12-23T02:40:40.843Z,93095.34
2022-12-23T02:41:23.689Z,93091.11
2022-12-23T02:42:04.304Z,93090.29
2022-12-23T02:43:00.824Z,93090.03
2022-12-23T02:43:42.973Z,93088.58
2022-12-23T02:44:30.471Z,93091.34
2022-12-23T02:45:10.602Z,93090.61
2022-12-23T02:45:57.264Z,93090.31
2022-12-23T02:46:41.012Z,93090.23
2022-12-23T02:47:22.974Z,93083.73
2022-12-23T02:48:27.781Z,93086.27
2022-12-23T02:50:45.486Z,93076.59
2022-12-23T02:51:24.989Z,93075.65
2022-12-23T02:52:01.804Z,93080.24
2022-12-23T02:52:38.196Z,93080.52
2022-12-23T02:53:19.950Z,93076.33
2022-12-23T02:53:57.811Z,93075.92
2022-12-23T02:54:41.127Z,93073.64
2022-12-23T02:55:24.570Z,93075.26
2022-12-23T02:56:01.356Z,93072.33
2022-12-23T02:56:37.581Z,93075.34
2022-12-23T02:57:13.310Z,93072.01
2022-12-23T02:57:50.234Z,93068.63
2022-12-23T02:58:29.433Z,93072.89
2022-12-23T02:59:13.599Z,93076.54
2022-12-23T02:59:51.395Z,93072.96
2022-12-23T03:00:24.856Z,93071.93
2022-12-23T03:01:00.890Z,93073.05
2022-12-23T03:01:36.011Z,93072.70
2022-12-23T03:02:10.048Z,93073.61
2022-12-23T03:02:45.445Z,93074.02
2022-12-23T03:03:22.326Z,93072.92
2022-12-23T03:03:55.945Z,93074.10
2022-12-23T03:04:29.311Z,93071.27
2022-12-23T03:05:02.656Z,93075.27
2022-12-23T03:05:45.387Z,93070.98
2022-12-23T03:06:27.361Z,93071.27
2022-12-23T03:07:07.352Z,93072.52
2022-12-23T03:07:43.809Z,93075.04
2022-12-23T03:08:30.645Z,93076.77
2022-12-23T03:09:04.494Z,93071.29
2022-12-23T03:09:55.700Z,93072.83
2022-12-23T03:10:36.756Z,93069.46
2022-12-23T03:11:16.904Z,93064.96
2022-12-23T03:11:54.226Z,93068.69
2022-12-23T03:12:55.138Z,93071.70
2022-12-23T03:13:43.331Z,93070.73
2022-12-23T03:14:49.648Z,93067.84
2022-12-23T03:15:52.297Z,93068.20
2022-12-23T03:16:46.932Z,93068.89
2022-12-23T03:17:39.095Z,93068.22
2022-12-23T03:18:22.120Z,93063.98
2022-12-23T03:19:04.302Z,93064.93
2022-12-23T03:19:50.352Z,93063.23
2022-12-23T03:20:54.550Z,93069.09
2022-12-23T03:21:30.798Z,93058.52
2022-12-23T03:22:41.920Z,93073.08
2022-12-23T03:23:21.152Z,93066.27
2022-12-23T03:24:03.734Z,93062.43
2022-12-23T03:24:55.507Z,93063.35
2022-12-23T03:25:50.459Z,93062.71
2022-12-23T03:26:34.309Z,93066.64
2022-12-23T03:27:31.478Z,93065.66
2022-12-23T03:28:17.763Z,93064.36
2022-12-23T03:29:03.397Z,93061.19
2022-12-23T03:29:51.875Z,93063.61
2022-12-23T03:30:26.397Z,93066.36
2022-12-23T03:31:02.031Z,93060.54
2022-12-23T03:31:36.848Z,93061.27
2022-12-23T03:32:14.457Z,93061.00
2022-12-23T03:32:52.942Z,93062.29
2022-12-23T03:33:28.690Z,93064.20
2022-12-23T03:34:12.040Z,93062.91
2022-12-23T03:34:50.405Z,93061.66
2022-12-23T03:35:34.217Z,93062.42
2022-12-23T03:36:13.639Z,93061.64
2022-12-23T03:36:53.486Z,93060.65
2022-12-23T03:37:32.109Z,93068.76
2022-12-23T03:38:07.974Z,93068.73
2022-12-23T03:38:44.165Z,93071.07
2022-12-23T03:39:21.970Z,93073.06
2022-12-23T03:40:03.754Z,93075.79
2022-12-23T03:40:45.085Z,93078.03
2022-12-23T03:41:25.489Z,93075.04
2022-12-23T03:42:06.585Z,93075.25
2022-12-23T03:42:42.078Z,93072.04
2022-12-23T03:43:27.583Z,93069.23
2022-12-23T03:44:13.693Z,93069.58
2022-12-23T03:45:19.241Z,93069.41
2022-12-23T03:45:49.124Z,93075.77
2022-12-23T03:46:54.589Z,93071.21
2022-12-23T03:47:32.453Z,93075.98
2022-12-23T03:48:11.446Z,93078.20
2022-12-23T03:49:01.476Z,93075.54
2022-12-23T03:49:44.032Z,93075.61
2022-12-23T03:50:20.934Z,93082.58
2022-12-23T03:50:58.724Z,93080.34
2022-12-23T03:51:48.041Z,93078.55
2022-12-23T03:52:28.655Z,93086.08
2022-12-23T03:53:14.319Z,93087.30
2022-12-23T03:53:55.031Z,93087.66
2022-12-23T03:54:35.273Z,93089.05
2022-12-23T03:55:15.411Z,93091.81
2022-12-23T03:55:56.914Z,93090.57
2022-12-23T03:56:39.624Z,93087.86
2022-12-23T03:57:14.167Z,93087.21
2022-12-23T03:58:09.734Z,93085.27
2022-12-23T03:58:49.691Z,93085.91
2022-12-23T03:59:34.556Z,93082.48
2022-12-23T04:00:08.829Z,93080.08
2022-12-23T04:00:50.836Z,93081.16
2022-12-23T04:02:12.290Z,93081.18
2022-12-23T04:02:45.909Z,93081.58
2022-12-23T04:03:31.679Z,93076.71
2022-12-23T04:04:24.802Z,93073.52
2022-12-23T04:05:22.757Z,93070.94
2022-12-23T04:06:00.716Z,93077.08
2022-12-23T04:06:42.616Z,93073.43
2022-12-23T04:07:22.524Z,93073.57
2022-12-23T04:08:20.804Z,93075.33
2022-12-23T04:08:55.047Z,93080.60
2022-12-23T04:09:29.364Z,93082.15
2022-12-23T04:10:04.566Z,93080.20
2022-12-23T04:10:38.131Z,93078.00
2022-12-23T04:11:12.269Z,93082.89
2022-12-23T04:11:45.879Z,93079.42
2022-12-23T04:12:20.991Z,93079.52
2022-12-23T04:12:55.380Z,93078.56
2022-12-23T04:13:30.378Z,93076.73
2022-12-23T04:14:03.852Z,93076.79
2022-12-23T04:14:38.470Z,93077.80
2022-12-23T04:15:13.250Z,93072.52
2022-12-23T04:15:47.120Z,93077.22
2022-12-23T04:16:20.762Z,93072.30
2022-12-23T04:16:57.409Z,93067.34
2022-12-23T04:17:30.859Z,93068.83
2022-12-23T04:18:04.466Z,93066.77
2022-12-23T04:18:40.018Z,93064.55
2022-12-23T04:19:13.738Z,93067.42
2022-12-23T04:19:47.667Z,93064.27
2022-12-23T04:20:21.528Z,93061.27
2022-12-23T04:20:55.070Z,93060.64
2022-12-23T04:21:28.533Z,93057.53
2022-12-23T04:22:02.015Z,93053.70
2022-12-23T04:22:35.571Z,93055.33
2022-12-23T04:23:09.024Z,93053.04
2022-12-23T04:23:42.632Z,93051.02
2022-12-23T04:24:16.314Z,93048.27
2022-12-23T04:24:49.671Z,93049.77
2022-12-23T04:25:23.084Z,93047.77
2022-12-23T04:25:56.538Z,93049.61
2022-12-23T04:26:30.122Z,93047.05
2022-12-23T04:27:03.647Z,93050.16
2022-12-23T04:27:41.486Z,93055.39
2022-12-23T04:28:15.000Z,93050.05
2022-12-23T04:28:48.461Z,93051.41
2022-12-23T04:29:21.839Z,93051.55
2022-12-23T04:29:55.391Z,93048.88
2022-12-23T04:30:33.878Z,93048.52
2022-12-23T04:31:08.135Z,93046.34
2022-12-23T04:31:41.722Z,93043.11
2022-12-23T04:32:16.123Z,93035.25
2022-12-23T04:32:49.519Z,93037.35
2022-12-23T04:33:23.115Z,93036.58
2022-12-23T04:33:57.067Z,93035.98
2022-12-23T04:34:30.459Z,93035.60
2022-12-23T04:35:04.431Z,93036.45
2022-12-23T04:35:38.070Z,93035.52
2022-12-23T04:36:11.726Z,93034.27
2022-12-23T04:36:45.126Z,93031.44
2022-12-23T04:37:18.574Z,93026.98
2022-12-23T04:37:51.998Z,93028.50
2022-12-23T04:38:25.346Z,93025.52
2022-12-23T04:38:58.787Z,93029.59
2022-12-23T04:39:32.329Z,93035.67
2022-12-23T04:40:06.735Z,93038.80
2022-12-23T04:40:40.402Z,93042.66
2022-12-23T04:41:13.802Z,93041.76
2022-12-23T04:41:47.358Z,93042.94
2022-12-23T04:42:24.357Z,93043.18
2022-12-23T04:42:57.943Z,93043.09
2022-12-23T04:43:33.964Z,93044.65
2022-12-23T04:44:07.504Z,93045.79
2022-12-23T04:44:41.248Z,93047.23
2022-12-23T04:45:15.324Z,93049.75
2022-12-23T04:45:52.223Z,93048.87
2022-12-23T04:46:25.715Z,93046.75
2022-12-23T04:46:59.599Z,93039.22
2022-12-23T04:47:33.116Z,93043.69
2022-12-23T04:48:06.685Z,93042.64
2022-12-23T04:48:40.045Z,93039.60
2022-12-23T04:49:13.501Z,93040.79
2022-12-23T04:49:46.949Z,93041.45
2022-12-23T04:50:20.400Z,93040.02
2022-12-23T04:50:53.766Z,93041.27
2022-12-23T04:51:27.418Z,93039.83
2022-12-23T04:52:00.911Z,93043.21
2022-12-23T04:52:34.317Z,93043.39
2022-12-23T04:53:07.776Z,93047.48
2022-12-23T04:53:41.356Z,93042.83
2022-12-23T04:54:14.772Z,93042.86
2022-12-23T04:54:48.348Z,93043.17
2022-12-23T04:55:21.850Z,93042.33
2022-12-23T04:55:55.318Z,93040.14
2022-12-23T04:56:28.741Z,93042.75
2022-12-23T04:57:02.389Z,93040.75
2022-12-23T04:57:36.043Z,93040.52
2022-12-23T04:58:09.652Z,93042.05
2022-12-23T04:58:43.324Z,93038.25
2022-12-23T04:59:16.878Z,93042.67
2022-12-23T04:59:50.336Z,93048.30
2022-12-23T05:00:23.847Z,93046.98
2022-12-23T05:01:05.781Z,93046.70
2022-12-23T05:01:39.679Z,93046.99
2022-12-23T05:02:14.087Z,93045.69
2022-12-23T05:02:47.865Z,93042.80
2022-12-23T05:03:21.638Z,93042.32
2022-12-23T05:03:55.155Z,93045.94
2022-12-23T05:04:28.659Z,93045.33
2022-12-23T05:05:02.139Z,93041.54
2022-12-23T05:05:35.584Z,93044.35
2022-12-23T05:06:09.463Z,93042.14
2022-12-23T05:06:42.966Z,93044.52
2022-12-23T05:07:16.463Z,93042.83
2022-12-23T05:07:50.725Z,93042.09
2022-12-23T05:08:24.170Z,93045.27
2022-12-23T05:08:57.506Z,93044.40
2022-12-23T05:09:31.022Z,93044.97
2022-12-23T05:10:04.641Z,93043.79
2022-12-23T05:10:38.301Z,93042.36
2022-12-23T05:11:11.749Z,93042.15
2022-12-23T05:11:45.191Z,93046.08
2022-12-23T05:12:18.694Z,93041.42
2022-12-23T05:12:52.142Z,93044.48
2022-12-23T05:13:25.616Z,93039.45
2022-12-23T05:13:59.056Z,93045.48
2022-12-23T05:14:32.446Z,93042.50
2022-12-23T05:15:06.523Z,93044.10
2022-12-23T05:15:39.976Z,93045.73
2022-12-23T05:16:13.619Z,93041.83
2022-12-23T05:16:47.278Z,93041.18
2022-12-23T05:17:20.773Z,93041.30
2022-12-23T05:17:54.345Z,93038.76
2022-12-23T05:18:27.793Z,93040.27
2022-12-23T05:19:01.344Z,93044.05
2022-12-23T05:19:34.949Z,93043.46
2022-12-23T05:20:09.140Z,93042.98
2022-12-23T05:20:42.827Z,93043.55
2022-12-23T05:21:16.458Z,93040.13
2022-12-23T05:21:49.924Z,93041.36
2022-12-23T05:22:23.447Z,93039.59
2022-12-23T05:22:56.859Z,93036.75
2022-12-23T05:23:30.371Z,93033.88
2022-12-23T05:24:04.130Z,93033.39
2022-12-23T05:24:37.592Z,93030.34
2022-12-23T05:25:12.324Z,93034.23
2022-12-23T05:25:51.925Z,93031.15
2022-12-23T05:26:25.439Z,93032.05
2022-12-23T05:27:00.336Z,93032.73
2022-12-23T05:27:36.070Z,93030.46
2022-12-23T05:28:09.938Z,93029.98
2022-12-23T05:28:45.733Z,93030.31
2022-12-23T05:29:19.203Z,93029.65
2022-12-23T05:29:52.788Z,93031.00
2022-12-23T05:30:26.406Z,93038.27
2022-12-23T05:31:02.534Z,93036.94
2022-12-23T05:31:36.140Z,93035.70
2022-12-23T05:32:10.250Z,93032.71
2022-12-23T05:32:43.713Z,93029.63
2022-12-23T05:33:17.135Z,93028.42
2022-12-23T05:33:52.719Z,93031.29
2022-12-23T05:34:26.359Z,93031.80
2022-12-23T05:34:59.847Z,93029.73
2022-12-23T05:35:33.444Z,93032.44
2022-12-23T05:36:07.841Z,93029.89
2022-12-23T05:36:41.713Z,93016.13
2022-12-23T05:37:15.173Z,93024.58
2022-12-23T05:37:48.672Z,93032.50
2022-12-23T05:38:22.294Z,93029.29
2022-12-23T05:38:57.606Z,93034.39
2022-12-23T05:39:31.184Z,93029.42
2022-12-23T05:40:05.189Z,93032.66
2022-12-23T05:40:38.669Z,93032.60
2022-12-23T05:41:12.245Z,93035.86
2022-12-23T05:41:46.129Z,93034.67
2022-12-23T05:42:19.761Z,93036.97
2022-12-23T05:42:53.187Z,93032.55
2022-12-23T05:43:26.668Z,93035.64
2022-12-23T05:44:00.204Z,93032.73
2022-12-23T05:44:33.647Z,93030.31
2022-12-23T05:45:07.710Z,93031.09
2022-12-23T05:45:41.652Z,93033.29
2022-12-23T05:46:15.142Z,93034.27
2022-12-23T05:46:48.547Z,93035.95
2022-12-23T05:47:22.025Z,93023.38
2022-12-23T05:47:55.417Z,93035.64
2022-12-23T05:48:28.764Z,93037.90
2022-12-23T05:49:02.283Z,93035.86
2022-12-23T05:49:35.689Z,93034.38
2022-12-23T05:50:09.984Z,93033.73
2022-12-23T05:50:43.960Z,93034.09
2022-12-23T05:51:17.663Z,93034.14
2022-12-23T05:51:51.094Z,93025.67
2022-12-23T05:52:24.503Z,93030.02
2022-12-23T05:52:58.085Z,93034.17
2022-12-23T05:53:31.723Z,93032.52
2022-12-23T05:54:05.194Z,93032.37
2022-12-23T05:54:38.803Z,93031.98
2022-12-23T05:55:12.168Z,93032.94
2022-12-23T05:55:45.622Z,93029.23
2022-12-23T05:56:19.050Z,93032.02
2022-12-23T05:56:55.474Z,93031.39
2022-12-23T05:57:28.934Z,93028.42
2022-12-23T05:58:02.957Z,93028.34
2022-12-23T05:58:36.548Z,93029.08
2022-12-23T05:59:10.210Z,93032.31
2022-12-23T05:59:43.903Z,93036.01
2022-12-23T06:00:18.526Z,93032.91
2022-12-23T06:00:52.048Z,93034.62
2022-12-23T06:01:25.555Z,93034.13
2022-12-23T06:02:00.066Z,93032.98
2022-12-23T06:02:34.048Z,93036.51
2022-12-23T06:03:08.004Z,93033.66
2022-12-23T06:03:41.829Z,93037.71
2022-12-23T06:04:15.534Z,93035.71
2022-12-23T06:04:50.014Z,93035.92
2022-12-23T06:05:23.560Z,93030.25
2022-12-23T06:05:57.087Z,93029.46
2022-12-23T06:06:30.611Z,93031.63
2022-12-23T06:07:04.245Z,93031.34
2022-12-23T06:07:39.286Z,93028.25
2022-12-23T06:08:12.891Z,93027.72
2022-12-23T06:08:46.475Z,93023.82
2022-12-23T06:09:19.995Z,93024.56
2022-12-23T06:09:53.583Z,93022.00
2022-12-23T06:10:26.974Z,93023.50
2022-12-23T06:11:00.464Z,93027.39
2022-12-23T06:11:33.817Z,93024.89
2022-12-23T06:12:07.453Z,93022.14
2022-12-23T06:12:40.900Z,93026.20
2022-12-23T06:13:14.376Z,93019.90
2022-12-23T06:13:47.885Z,93021.35
2022-12-23T06:14:28.854Z,93019.70
2022-12-23T06:15:03.495Z,93019.77
2022-12-23T06:15:37.177Z,93023.33
2022-12-23T06:16:10.867Z,93019.82
2022-12-23T06:16:44.524Z,93021.17
2022-12-23T06:17:17.962Z,93021.70
2022-12-23T06:17:51.861Z,93022.19
2022-12-23T06:18:25.521Z,93023.42
2022-12-23T06:18:59.209Z,93023.23
2022-12-23T06:19:32.891Z,93022.73
2022-12-23T06:20:07.171Z,93016.78
2022-12-23T06:20:41.040Z,93018.55
2022-12-23T06:21:14.569Z,93018.35
2022-12-23T06:21:48.199Z,93017.55
2022-12-23T06:22:22.023Z,93021.91
2022-12-23T06:22:55.433Z,93021.67
2022-12-23T06:23:28.779Z,93028.23
2022-12-23T06:24:02.397Z,93027.76
2022-12-23T06:24:36.608Z,93029.49
2022-12-23T06:25:10.341Z,93025.77
2022-12-23T06:25:43.865Z,93030.27
2022-12-23T06:26:18.780Z,93026.95
2022-12-23T06:26:57.020Z,93034.91
2022-12-23T06:27:31.121Z,93036.75
2022-12-23T06:28:05.480Z,93033.12
2022-12-23T06:28:38.899Z,93039.48
2022-12-23T06:29:12.558Z,93041.25
2022-12-23T06:29:46.345Z,93042.65
2022-12-23T06:30:19.832Z,93044.70
2022-12-23T06:30:55.102Z,93044.39
2022-12-23T06:31:28.835Z,93045.84
2022-12-23T06:32:02.588Z,93049.62
2022-12-23T06:32:38.564Z,93051.73
2022-12-23T06:33:12.713Z,93047.38
2022-12-23T06:34:00.543Z,93039.17
2022-12-23T06:34:34.211Z,93046.33
2022-12-23T06:35:09.070Z,93054.06
2022-12-23T06:35:43.464Z,93047.23
2022-12-23T06:36:16.887Z,93047.05
2022-12-23T06:36:50.357Z,93045.95
2022-12-23T06:37:23.825Z,93047.73
2022-12-23T06:37:57.209Z,93048.46
2022-12-23T06:38:30.549Z,93058.83
2022-12-23T06:39:04.054Z,93060.05
2022-12-23T06:39:37.441Z,93059.66
2022-12-23T06:40:11.586Z,93057.11
2022-12-23T06:40:45.213Z,93060.70
2022-12-23T06:41:18.939Z,93062.06
2022-12-23T06:41:52.365Z,93067.53
2022-12-23T06:42:25.767Z,93064.98
2022-12-23T06:42:59.322Z,93066.69
2022-12-23T06:43:32.721Z,93067.41
2022-12-23T06:44:06.255Z,93066.50
2022-12-23T06:44:39.739Z,93064.98
2022-12-23T06:45:13.837Z,93062.79
2022-12-23T06:45:49.358Z,93061.63
2022-12-23T06:46:23.086Z,93067.61
2022-12-23T06:46:56.542Z,93067.16
2022-12-23T06:47:31.426Z,93062.46
2022-12-23T06:48:05.590Z,93062.80
2022-12-23T06:48:38.991Z,93062.26
2022-12-23T06:49:14.168Z,93059.09
2022-12-23T06:49:47.977Z,93063.66
2022-12-23T06:50:22.559Z,93058.39
2022-12-23T06:50:56.021Z,93059.73
2022-12-23T06:51:29.559Z,93064.23
2022-12-23T06:52:03.039Z,93063.11
2022-12-23T06:52:36.545Z,93063.53
2022-12-23T06:53:10.515Z,93056.94
2022-12-23T06:53:44.444Z,93057.55
2022-12-23T06:54:17.865Z,93058.33
2022-12-23T06:54:51.369Z,93059.77
2022-12-23T06:55:24.746Z,93056.06
2022-12-23T06:56:04.859Z,93057.67
2022-12-23T06:56:39.031Z,93062.32
2022-12-23T06:57:13.147Z,93054.49
2022-12-23T06:57:46.735Z,93062.65
2022-12-23T06:58:20.356Z,93062.55
2022-12-23T06:58:53.844Z,93054.75
2022-12-23T06:59:28.180Z,93068.95
2022-12-23T07:00:01.834Z,93068.96
2022-12-23T07:00:35.390Z,93065.45
2022-12-23T07:01:10.195Z,93066.70
2022-12-23T07:01:43.999Z,93068.75
2022-12-23T07:02:20.836Z,93062.77
2022-12-23T07:02:54.944Z,93062.29
2022-12-23T07:03:28.726Z,93063.51
2022-12-23T07:04:03.266Z,93075.16
2022-12-23T07:04:36.775Z,93080.46
2022-12-23T07:05:11.019Z,93075.46
2022-12-23T07:05:48.335Z,93069.56
2022-12-23T07:06:21.905Z,93082.98
2022-12-23T07:06:55.161Z,93077.65
2022-12-23T07:07:28.846Z,93080.01
2022-12-23T07:08:03.507Z,93085.27
2022-12-23T07:08:45.814Z,93092.09
2022-12-23T07:09:26.996Z,93077.75
2022-12-23T07:10:00.794Z,93088.70
2022-12-23T07:10:35.693Z,93090.48
2022-12-23T07:11:09.326Z,93088.28
2022-12-23T07:11:42.806Z,93092.55
2022-12-23T07:12:16.292Z,93094.39
2022-12-23T07:12:51.005Z,93089.70
2022-12-23T07:13:24.886Z,93085.48
2022-12-23T07:13:59.723Z,93089.70
2022-12-23T07:14:33.190Z,93085.94
2022-12-23T07:15:07.427Z,93089.38
2022-12-23T07:15:41.151Z,93077.25
2022-12-23T07:16:14.686Z,93094.75
2022-12-23T07:16:48.597Z,93091.04
2022-12-23T07:17:22.038Z,93093.98
2022-12-23T07:17:55.881Z,93097.30
2022-12-23T07:18:30.015Z,93089.02
2022-12-23T07:19:04.451Z,93091.99
2022-12-23T07:19:40.594Z,93087.14
2022-12-23T07:20:14.597Z,93091.95
2022-12-23T07:20:48.187Z,93099.11
2022-12-23T07:21:29.847Z,93099.00
2022-12-23T07:22:03.770Z,93105.55
2022-12-23T07:22:37.349Z,93103.48
2022-12-23T07:23:10.849Z,93104.63
2022-12-23T07:23:44.520Z,93105.56
2022-12-23T07:24:17.972Z,93104.44
2022-12-23T07:24:51.885Z,93104.55